METAR AND TAF INFORMATION
METAR FOR WIII
ADDS - METARS form results

(2020 UTC 13 November 2018)
Data provider http://aviationweather.gov/metar/data/
 
METAR text: WIII 132000Z 22006KT 6000 FEW020 25/25 Q1008 NOSIG
Conditions at: WIII (SOEKARNO-HATTA I, ID) observed 2000 UTC 13 November 2018
Temperature: 25.0°C (77°F)
Dewpoint: 25.0°C (77°F) [RH = 100%]
Pressure (altimeter): 29.76 inches Hg (1008.0 mb)
Winds: from the SW (220 degrees) at 7 MPH (6 knots; 3.1 m/s)
Visibility: 4 miles ( 6 km)
Ceiling: at least 12,000 feet AGL
Clouds: few clouds at 2000 feet AGL
Weather: no significant weather observed at this time

METAR text: WIII 131930Z 24007KT 6000 FEW02 25/25 Q1008 NOSIG
Conditions at: WIII (SOEKARNO-HATTA I, ID) observed 1930 UTC 13 November 2018
Temperature: 25.0°C (77°F)
Dewpoint: 25.0°C (77°F) [RH = 100%]
Pressure (altimeter): 29.76 inches Hg (1008.0 mb)
Winds: from the WSW (240 degrees) at 8 MPH (7 knots; 3.6 m/s)
Visibility: 4 miles ( 6 km)
Ceiling: unknown
Clouds: missing
Weather: no significant weather observed at this time

Forecast for: WIII (SOEKARNO-HATTA I, ID)
Text: TAF WIII 131700Z 1318/1424 21005KT 5000 HZ SCT020
Forecast period: 1800 UTC 13 November 2018 to 0200 UTC 14 November 2018
Forecast type: FROM: standard forecast or significant change
Winds: from the SSW (210 degrees) at 6 MPH (5 knots; 2.6 m/s)
Visibility: 3 miles (5 km)
Ceiling: at least 12,000 feet AGL
Clouds: scattered clouds at 2000 feet AGL
Weather: HZ  (haze)
Text: BECMG 1402/1404 35010KT 8000 NSW
Forecast period: 0200 UTC 14 November 2018 to 0000 UTC 15 November 2018
Forecast type: BECOMING: Conditions expected to become as follows by 0400 UTC 14 November 2018
Winds: from the N (350 degrees) at 12 MPH (10 knots; 5.1 m/s)
Visibility: 5 miles (8 km)
Ceiling: at least 12,000 feet AGL
Clouds: scattered clouds at 2000 feet AGL
Weather: NSW  (no significant weather)

 AIRPORT MAP

 RUNWAY INFORMATION
Runway 07L Runway length 11812 ft Runway width 197 ft
Runway elevation 29 ft Runway displaced threshold 0 ft Runway heading 68
Runway 25R Runway length 11812 ft Runway width 197 ft
Runway elevation 21 ft Runway displaced threshold 0 ft Runway heading 248
Runway 07R Runway length 12008 ft Runway width 197 ft
Runway elevation 34 ft Runway displaced threshold 0 ft Runway heading 68
Runway 25L Runway length 12008 ft Runway width 197 ft
Runway elevation 27 ft Runway displaced threshold 0 ft Runway heading 248

 AIRPORT FREQUENCIES
Type APP Name JAKARTA AP Frequency 119.75 MHZ
Type ARR Name JAKARTA AR Frequency 125.45 MHZ
Type ATIS Name ATIS Frequency 126.85 MHZ
Type CLD Name CLNC DEL Frequency 121.95 MHZ
Type FSS Name JAKARTA CE Frequency 129.7 MHZ
Type GND Name GND Frequency 121.6 MHZ
Type INFO Name PABELOKAN Frequency 129.8 MHZ
Type TWR Name TWR Frequency 118.75 MHZ

 AIRPORT NEAR NAVIGATION AIDS
Type VOR-DME Name Cengkareng Frequency 113600 KHZ
Type VOR-DME Name Jakarta Frequency 114600 KHZ